createdAt,value
2019-04-05T00:01:24.165Z,6.93
2019-04-05T00:03:53.861Z,8.20
2019-04-05T00:06:25.900Z,7.87
2019-04-05T00:08:55.741Z,8.50
2019-04-05T00:11:25.421Z,8.17
2019-04-05T00:13:55.202Z,7.87
2019-04-05T00:16:25.172Z,9.10
2019-04-05T00:18:55.983Z,8.65
2019-04-05T00:21:25.951Z,9.78
2019-04-05T00:23:56.066Z,9.70
2019-04-05T00:26:26.849Z,9.23
2019-04-05T00:28:56.534Z,9.43
2019-04-05T00:31:33.054Z,9.43
2019-04-05T00:34:02.758Z,11.38
2019-04-05T00:36:32.462Z,9.63
2019-04-05T00:39:02.175Z,11.10
2019-04-05T00:41:33.273Z,12.90
2019-04-05T00:44:03.078Z,11.55
2019-04-05T00:46:33.026Z,11.85
2019-04-05T00:49:02.734Z,13.25
2019-04-05T00:51:34.453Z,13.83
2019-04-05T00:54:05.306Z,13.07
2019-04-05T00:56:41.318Z,12.75
2019-04-05T00:59:12.170Z,11.90
2019-04-05T01:01:41.858Z,14.23
2019-04-05T01:04:11.830Z,12.18
2019-04-05T01:06:54.034Z,14.20
2019-04-05T01:09:24.270Z,12.30
2019-04-05T01:11:54.129Z,13.10
2019-04-05T01:14:25.862Z,12.35
2019-04-05T01:17:01.490Z,12.10
2019-04-05T01:19:34.274Z,12.23
2019-04-05T01:22:05.502Z,12.40
2019-04-05T01:24:36.118Z,11.90
2019-04-05T01:27:07.398Z,14.23
2019-04-05T01:29:37.105Z,13.75
2019-04-05T01:32:06.822Z,13.40
2019-04-05T01:34:37.185Z,13.40
2019-04-05T01:37:07.042Z,12.70
2019-04-05T01:39:36.999Z,12.35
2019-04-05T01:42:08.262Z,12.85
2019-04-05T01:44:40.370Z,11.50
2019-04-05T01:47:10.549Z,13.05
2019-04-05T01:49:40.405Z,14.23
2019-04-05T01:52:10.173Z,11.93
2019-04-05T01:54:47.159Z,12.43
2019-04-05T01:57:17.292Z,13.00
2019-04-05T01:59:53.410Z,13.10
2019-04-05T02:02:35.733Z,13.20
2019-04-05T02:05:08.070Z,11.95
2019-04-05T02:07:38.517Z,11.80
2019-04-05T02:10:09.256Z,12.23
2019-04-05T02:12:40.275Z,12.50
2019-04-05T02:15:24.303Z,13.70
2019-04-05T02:18:00.111Z,12.83
2019-04-05T02:20:31.897Z,12.15
2019-04-05T02:23:01.992Z,13.30
2019-04-05T02:25:31.883Z,12.90
2019-04-05T02:28:07.139Z,12.07
2019-04-05T02:30:37.239Z,13.30
2019-04-05T02:33:07.382Z,12.40
2019-04-05T02:35:39.057Z,13.80
2019-04-05T02:38:09.075Z,14.20
2019-04-05T02:40:49.179Z,12.03
2019-04-05T02:43:22.515Z,12.93
2019-04-05T02:45:55.256Z,13.20
2019-04-05T02:48:29.770Z,11.90
2019-04-05T02:51:04.733Z,13.18
2019-04-05T02:53:37.869Z,13.40
2019-04-05T02:56:09.562Z,13.10
2019-04-05T02:58:42.204Z,14.70
2019-04-05T03:01:22.351Z,14.00
2019-04-05T03:03:50.886Z,12.17
2019-04-05T03:06:20.900Z,14.90
2019-04-05T03:08:52.742Z,13.58
2019-04-05T03:11:25.535Z,13.80
2019-04-05T03:13:59.521Z,13.20
2019-04-05T03:16:43.073Z,13.93
2019-04-05T03:19:21.066Z,13.80
2019-04-05T03:21:56.147Z,13.95
2019-04-05T03:24:29.068Z,13.33
2019-04-05T03:27:10.472Z,15.50
2019-04-05T03:29:40.890Z,13.40
2019-04-05T03:32:12.175Z,14.83
2019-04-05T03:34:44.535Z,13.18
2019-04-05T03:37:17.411Z,13.40
2019-04-05T03:40:00.860Z,12.43
2019-04-05T03:42:31.681Z,14.73
2019-04-05T03:45:01.915Z,15.20
2019-04-05T03:47:31.859Z,14.38
2019-04-05T03:50:01.825Z,15.63
2019-04-05T03:52:32.168Z,15.00
2019-04-05T03:55:02.345Z,13.17
2019-04-05T03:57:38.306Z,13.10
2019-04-05T04:00:10.779Z,14.85
2019-04-05T04:02:42.604Z,14.30
2019-04-05T04:05:13.231Z,13.77
2019-04-05T04:07:51.087Z,15.97
2019-04-05T04:10:41.539Z,14.60
2019-04-05T04:13:12.427Z,13.98
2019-04-05T04:15:42.432Z,13.08
2019-04-05T04:18:13.495Z,13.77
2019-04-05T04:20:54.499Z,14.35
2019-04-05T04:23:29.352Z,15.40
2019-04-05T04:25:59.690Z,15.25
2019-04-05T04:28:30.871Z,15.98
2019-04-05T04:31:02.743Z,14.00
2019-04-05T04:33:34.087Z,14.73
2019-04-05T04:36:04.619Z,14.38
2019-04-05T04:38:34.571Z,16.90
2019-04-05T04:41:04.821Z,15.60
2019-04-05T04:43:35.862Z,13.58
2019-04-05T04:46:07.301Z,16.05
2019-04-05T04:48:37.412Z,15.93
2019-04-05T04:51:07.814Z,15.10
2019-04-05T04:53:39.315Z,13.25
2019-04-05T04:56:10.490Z,14.87
2019-04-05T04:58:46.461Z,17.85
2019-04-05T05:01:16.738Z,14.00
2019-04-05T05:03:47.122Z,15.83
2019-04-05T05:06:17.282Z,16.17
2019-04-05T05:08:47.800Z,16.50
2019-04-05T05:11:21.451Z,17.65
2019-04-05T05:13:51.619Z,15.77
2019-04-05T05:16:21.594Z,15.70
2019-04-05T05:18:51.294Z,16.50
2019-04-05T05:21:22.082Z,15.57
2019-04-05T05:23:52.312Z,17.47
2019-04-05T05:26:22.567Z,15.50
2019-04-05T05:28:52.330Z,15.63
2019-04-05T05:31:24.255Z,16.82
2019-04-05T05:33:54.619Z,16.73
2019-04-05T05:36:24.842Z,16.13
2019-04-05T05:38:55.248Z,16.50
2019-04-05T05:41:37.414Z,16.40
2019-04-05T05:44:07.119Z,16.37
2019-04-05T05:46:37.140Z,15.97
2019-04-05T05:49:06.970Z,15.70
2019-04-05T05:51:38.094Z,15.85
2019-04-05T05:54:08.062Z,14.83
2019-04-05T05:56:38.154Z,14.83
2019-04-05T05:59:08.331Z,15.48
2019-04-05T06:01:38.495Z,15.00
2019-04-05T06:04:08.588Z,15.23
2019-04-05T06:06:39.663Z,15.43
2019-04-05T06:09:10.782Z,16.17
2019-04-05T06:11:40.715Z,16.37
2019-04-05T06:14:15.813Z,16.10
2019-04-05T06:16:46.832Z,15.30
2019-04-05T06:19:16.746Z,16.60
2019-04-05T06:21:46.730Z,15.47
2019-04-05T06:24:17.846Z,14.97
2019-04-05T06:26:51.263Z,14.23
2019-04-05T06:29:23.316Z,16.40
2019-04-05T06:31:53.142Z,16.03
2019-04-05T06:34:24.810Z,13.20
2019-04-05T06:36:55.735Z,14.97
2019-04-05T06:39:33.858Z,13.83
2019-04-05T06:42:03.949Z,14.70
2019-04-05T06:44:40.418Z,13.87
2019-04-05T06:47:11.234Z,16.10
2019-04-05T06:49:41.199Z,14.23
2019-04-05T06:52:11.298Z,14.83
2019-04-05T06:54:41.126Z,15.00
2019-04-05T06:57:19.966Z,13.60
2019-04-05T06:59:51.886Z,13.63
2019-04-05T07:02:22.314Z,15.03
2019-04-05T07:04:52.181Z,15.10
2019-04-05T07:07:22.455Z,17.40
2019-04-05T07:09:52.286Z,16.17
2019-04-05T07:12:23.496Z,14.38
2019-04-05T07:14:56.128Z,14.20
2019-04-05T07:17:25.146Z,14.75
2019-04-05T07:19:56.108Z,14.03
2019-04-05T07:22:35.853Z,15.40
2019-04-05T07:24:57.994Z,15.63
2019-04-05T07:27:29.026Z,15.20
2019-04-05T07:29:59.130Z,14.87
2019-04-05T07:32:32.287Z,16.00
2019-04-05T07:35:02.382Z,14.53
2019-04-05T07:37:32.475Z,14.67
2019-04-05T07:40:06.081Z,14.93
2019-04-05T07:42:42.031Z,15.60
2019-04-05T07:45:12.487Z,15.67
2019-04-05T07:47:42.595Z,15.60
2019-04-05T07:50:14.432Z,13.20
2019-04-05T07:52:44.523Z,13.70
2019-04-05T07:55:15.895Z,15.00
2019-04-05T07:57:46.018Z,14.60
2019-04-05T08:00:35.793Z,14.70
2019-04-05T08:03:06.227Z,14.33
2019-04-05T08:05:37.358Z,16.23
2019-04-05T08:08:12.106Z,13.63
2019-04-05T08:10:46.499Z,14.13
2019-04-05T08:13:17.699Z,15.07
2019-04-05T08:15:47.790Z,14.37
2019-04-05T08:18:17.903Z,14.63
2019-04-05T08:20:48.406Z,14.70
2019-04-05T08:23:24.182Z,15.67
2019-04-05T08:25:54.282Z,15.47
2019-04-05T08:28:26.094Z,14.90
2019-04-05T08:30:56.101Z,14.97
2019-04-05T08:33:26.186Z,15.13
2019-04-05T08:35:57.300Z,13.90
2019-04-05T08:38:28.007Z,15.67
2019-04-05T08:40:57.973Z,13.30
2019-04-05T08:43:28.083Z,13.50
2019-04-05T08:45:58.179Z,14.23
2019-04-05T08:48:28.328Z,15.07
2019-04-05T08:51:00.089Z,15.17
2019-04-05T08:53:30.082Z,14.07
2019-04-05T08:55:59.946Z,13.90
2019-04-05T08:58:33.505Z,13.23
2019-04-05T09:01:04.817Z,14.20
2019-04-05T09:03:34.913Z,14.17
2019-04-05T09:06:05.206Z,15.17
2019-04-05T09:08:34.891Z,14.30
2019-04-05T09:11:04.596Z,14.80
2019-04-05T09:13:35.570Z,12.83
2019-04-05T09:16:06.346Z,14.90
2019-04-05T09:18:42.656Z,14.07
2019-04-05T09:21:13.446Z,13.50
2019-04-05T09:23:43.421Z,14.17
2019-04-05T09:26:13.588Z,13.63
2019-04-05T09:28:45.587Z,15.20
2019-04-05T09:31:19.693Z,15.00
2019-04-05T09:33:49.390Z,13.77
2019-04-05T09:36:19.364Z,15.17
2019-04-05T09:38:49.222Z,14.13
2019-04-05T09:41:19.273Z,15.00
2019-04-05T09:43:49.415Z,15.63
2019-04-05T09:46:19.530Z,13.50
2019-04-05T09:48:49.876Z,13.90
2019-04-05T09:51:20.027Z,13.80
2019-04-05T09:53:49.866Z,15.60
2019-04-05T09:56:20.794Z,12.63
2019-04-05T09:58:51.578Z,14.40
2019-04-05T10:01:21.537Z,14.93
2019-04-05T10:03:51.386Z,14.80
2019-04-05T10:06:21.380Z,16.00
2019-04-05T10:08:51.246Z,15.17
2019-04-05T10:11:20.946Z,14.33
2019-04-05T10:13:50.674Z,14.57
2019-04-05T10:16:20.362Z,17.40
2019-04-05T10:18:51.620Z,16.20
2019-04-05T10:21:21.554Z,14.83
2019-04-05T10:23:51.254Z,15.47
2019-04-05T10:26:21.574Z,16.90
2019-04-05T10:28:52.382Z,16.10
2019-04-05T10:31:22.340Z,15.27
2019-04-05T10:33:53.132Z,16.40
2019-04-05T10:36:24.786Z,14.77
2019-04-05T10:38:54.804Z,17.83
2019-04-05T10:41:24.638Z,15.17
2019-04-05T10:43:54.607Z,15.33
2019-04-05T10:46:24.710Z,14.10
2019-04-05T10:48:54.810Z,16.23
2019-04-05T10:51:24.938Z,16.47
2019-04-05T10:53:55.048Z,13.90
2019-04-05T10:56:26.270Z,16.10
2019-04-05T10:58:56.240Z,15.17
2019-04-05T11:01:26.411Z,15.43
2019-04-05T11:03:58.530Z,16.30
2019-04-05T11:06:28.634Z,14.67
2019-04-05T11:08:58.828Z,16.30
2019-04-05T11:11:28.942Z,16.50
2019-04-05T11:14:13.205Z,14.50
2019-04-05T11:16:34.130Z,14.70
2019-04-05T11:19:03.974Z,14.83
2019-04-05T11:21:33.763Z,14.20
2019-04-05T11:24:03.734Z,15.00
2019-04-05T11:26:39.910Z,17.27
2019-04-05T11:29:15.510Z,14.80
2019-04-05T11:31:56.324Z,16.17
2019-04-05T11:34:17.450Z,15.20
2019-04-05T11:36:47.410Z,13.60
2019-04-05T11:39:17.546Z,14.73
2019-04-05T11:41:51.918Z,16.13
2019-04-05T11:44:23.846Z,15.17
2019-04-05T11:46:57.127Z,14.97
2019-04-05T11:49:29.604Z,13.33
2019-04-05T11:52:00.656Z,14.93
2019-04-05T11:54:30.781Z,14.90
2019-04-05T11:57:00.620Z,15.63
2019-04-05T11:59:30.616Z,15.97
2019-04-05T12:02:18.386Z,14.83
2019-04-05T12:04:49.342Z,13.37
2019-04-05T12:07:23.926Z,14.57
2019-04-05T12:09:53.222Z,16.50
2019-04-05T12:12:25.628Z,15.70
2019-04-05T12:14:57.120Z,14.43
2019-04-05T12:17:29.182Z,14.57
2019-04-05T12:20:00.617Z,14.83
2019-04-05T12:22:32.620Z,15.20
2019-04-05T12:25:04.839Z,14.50
2019-04-05T12:27:34.838Z,15.07
2019-04-05T12:30:09.605Z,15.53
2019-04-05T12:32:41.497Z,15.47
2019-04-05T12:35:11.495Z,14.87
2019-04-05T12:37:50.317Z,14.77
2019-04-05T12:40:14.910Z,15.13
2019-04-05T12:42:47.049Z,14.77
2019-04-05T12:45:17.524Z,13.77
2019-04-05T12:47:52.050Z,12.93
2019-04-05T12:50:22.050Z,12.80
2019-04-05T12:52:56.481Z,14.23
2019-04-05T12:55:24.573Z,14.83
2019-04-05T12:57:56.377Z,14.60
2019-04-05T13:00:27.124Z,14.90
2019-04-05T13:02:57.440Z,13.63
2019-04-05T13:05:27.505Z,13.93
2019-04-05T13:08:03.408Z,14.20
2019-04-05T13:10:36.329Z,14.20
2019-04-05T13:13:06.626Z,14.00
2019-04-05T13:15:38.541Z,14.63
2019-04-05T13:18:08.271Z,14.43
2019-04-05T13:20:38.003Z,13.73
2019-04-05T13:23:07.778Z,14.07
2019-04-05T13:25:42.216Z,14.70
2019-04-05T13:28:13.743Z,15.00
2019-04-05T13:30:51.130Z,14.90
2019-04-05T13:33:21.643Z,15.40
2019-04-05T13:35:53.852Z,13.57
2019-04-05T13:38:30.679Z,12.73
2019-04-05T13:41:01.583Z,13.00
2019-04-05T13:43:32.675Z,14.53
2019-04-05T13:46:02.985Z,16.13
2019-04-05T13:48:35.005Z,14.90
2019-04-05T13:51:07.242Z,13.57
2019-04-05T13:53:43.158Z,13.83
2019-04-05T13:56:13.299Z,14.47
2019-04-05T13:58:46.184Z,15.10
2019-04-05T14:01:18.507Z,14.70
2019-04-05T14:03:50.732Z,13.50
2019-04-05T14:06:22.826Z,14.97
2019-04-05T14:08:52.941Z,14.10
2019-04-05T14:11:25.895Z,14.97
2019-04-05T14:14:01.787Z,13.70
2019-04-05T14:16:42.546Z,14.10
2019-04-05T14:19:12.323Z,14.30
2019-04-05T14:21:47.483Z,14.83
2019-04-05T14:24:14.080Z,13.80
2019-04-05T14:26:43.946Z,14.83
2019-04-05T14:29:14.886Z,15.00
2019-04-05T14:31:47.378Z,15.50
2019-04-05T14:34:19.070Z,15.60
2019-04-05T14:36:50.083Z,14.03
2019-04-05T14:39:27.551Z,15.27
2019-04-05T14:42:09.127Z,14.87
2019-04-05T14:44:30.962Z,15.27
2019-04-05T14:47:01.095Z,14.20
2019-04-05T14:49:31.336Z,13.10
2019-04-05T14:52:01.944Z,14.20
2019-04-05T14:54:32.125Z,13.03
2019-04-05T14:57:05.557Z,14.40
2019-04-05T14:59:33.363Z,13.07
2019-04-05T15:02:03.998Z,13.57
2019-04-05T15:04:34.896Z,12.90
2019-04-05T15:07:06.694Z,14.00
2019-04-05T15:09:37.323Z,14.53
2019-04-05T15:12:08.238Z,12.73
2019-04-05T15:14:38.079Z,13.50
2019-04-05T15:17:08.155Z,13.53
2019-04-05T15:19:45.951Z,13.13
2019-04-05T15:22:16.722Z,14.00
2019-04-05T15:24:47.237Z,14.73
2019-04-05T15:27:17.314Z,14.40
2019-04-05T15:29:47.267Z,14.37
2019-04-05T15:32:19.322Z,14.27
2019-04-05T15:34:50.300Z,13.43
2019-04-05T15:37:21.122Z,12.83
2019-04-05T15:39:52.779Z,12.70
2019-04-05T15:42:22.782Z,12.40
2019-04-05T15:44:54.797Z,13.63
2019-04-05T15:47:24.946Z,12.30
2019-04-05T15:49:54.790Z,13.83
2019-04-05T15:52:34.600Z,12.93
2019-04-05T15:55:06.820Z,13.23
2019-04-05T15:57:39.399Z,12.53
2019-04-05T16:00:13.531Z,14.33
2019-04-05T16:02:43.778Z,13.47
2019-04-05T16:05:15.614Z,13.10
2019-04-05T16:07:45.942Z,13.80
2019-04-05T16:10:17.215Z,12.30
2019-04-05T16:12:47.344Z,12.87
2019-04-05T16:15:17.426Z,12.80
2019-04-05T16:17:48.515Z,14.63
2019-04-05T16:20:20.542Z,13.40
2019-04-05T16:22:56.362Z,12.93
2019-04-05T16:25:26.577Z,12.07
2019-04-05T16:27:57.639Z,11.63
2019-04-05T16:30:27.499Z,12.63
2019-04-05T16:32:58.142Z,13.37
2019-04-05T16:35:28.109Z,13.80
2019-04-05T16:37:59.140Z,12.20
2019-04-05T16:40:31.295Z,14.50
2019-04-05T16:43:02.747Z,12.83
2019-04-05T16:45:32.456Z,12.93
2019-04-05T16:48:13.308Z,12.80
2019-04-05T16:50:42.999Z,12.10
2019-04-05T16:53:12.964Z,14.13
2019-04-05T16:55:44.004Z,14.37
2019-04-05T16:58:17.301Z,13.13
2019-04-05T17:00:47.227Z,13.47
2019-04-05T17:03:17.242Z,14.23
2019-04-05T17:05:49.582Z,13.37
2019-04-05T17:08:30.630Z,13.90
2019-04-05T17:11:01.460Z,12.97
2019-04-05T17:13:31.463Z,14.07
2019-04-05T17:16:01.298Z,12.70
2019-04-05T17:18:31.956Z,14.30
2019-04-05T17:21:11.826Z,11.60
2019-04-05T17:23:41.935Z,13.90
2019-04-05T17:26:12.036Z,13.13
2019-04-05T17:28:41.881Z,12.83
2019-04-05T17:31:11.583Z,13.60
2019-04-05T17:33:41.556Z,13.47
2019-04-05T17:36:12.483Z,13.63
2019-04-05T17:38:43.479Z,13.70
2019-04-05T17:41:14.268Z,13.53
2019-04-05T17:43:44.279Z,11.33
2019-04-05T17:46:15.025Z,14.60
2019-04-05T17:48:46.663Z,14.17
2019-04-05T17:51:16.761Z,15.17
2019-04-05T17:53:46.867Z,14.90
2019-04-05T17:56:17.066Z,12.43
2019-04-05T17:58:50.228Z,13.43
2019-04-05T18:01:20.347Z,14.83
2019-04-05T18:03:50.182Z,15.53
2019-04-05T18:06:21.125Z,20.50
2019-04-05T18:08:56.078Z,12.67
2019-04-05T18:11:25.778Z,11.97
2019-04-05T18:13:55.474Z,10.40
2019-04-05T18:16:25.438Z,10.70
2019-04-05T18:18:55.319Z,10.90
2019-04-05T18:21:24.981Z,14.83
2019-04-05T18:23:54.679Z,14.90
2019-04-05T18:26:24.379Z,18.70
2019-04-05T18:28:54.328Z,13.87
2019-04-05T18:31:25.388Z,12.47
2019-04-05T18:33:57.452Z,12.57
2019-04-05T18:36:27.285Z,12.10
2019-04-05T18:38:57.023Z,12.47
2019-04-05T18:41:27.894Z,12.40
2019-04-05T18:44:04.447Z,11.50
2019-04-05T18:46:35.821Z,11.80
2019-04-05T18:49:05.854Z,11.30
2019-04-05T18:51:40.555Z,12.63
2019-04-05T18:54:11.600Z,12.87
2019-04-05T18:56:41.760Z,12.53
2019-04-05T18:59:11.872Z,10.97
2019-04-05T19:01:41.711Z,11.30
2019-04-05T19:04:11.696Z,10.90
2019-04-05T19:06:41.538Z,12.63
2019-04-05T19:09:12.142Z,13.40
2019-04-05T19:11:42.247Z,15.80
2019-04-05T19:14:12.382Z,14.03
2019-04-05T19:16:42.255Z,14.53
2019-04-05T19:19:17.917Z,13.93
2019-04-05T19:21:47.999Z,12.53
2019-04-05T19:24:18.086Z,14.00
2019-04-05T19:26:47.918Z,15.50
2019-04-05T19:29:17.611Z,14.47
2019-04-05T19:49:30.107Z,13.10
2019-04-05T19:52:00.778Z,13.60
2019-04-05T19:54:30.752Z,13.17
2019-04-05T19:57:09.459Z,12.33
2019-04-05T19:59:40.146Z,13.40
2019-04-05T20:02:10.163Z,14.97
2019-04-05T20:04:46.160Z,13.10
2019-04-05T20:07:17.202Z,14.50
2019-04-05T20:09:47.023Z,14.90
2019-04-05T20:12:17.075Z,14.07
2019-04-05T20:14:46.915Z,14.03
2019-04-05T20:17:17.118Z,14.70
2019-04-05T20:19:47.215Z,12.83
2019-04-05T20:22:17.315Z,15.13
2019-04-05T20:24:47.145Z,15.83
2019-04-05T20:27:17.121Z,15.90
2019-04-05T20:29:46.939Z,14.40
2019-04-05T20:32:25.982Z,15.20
2019-04-05T20:34:58.894Z,16.37
2019-04-05T20:37:28.865Z,15.63
2019-04-05T20:39:58.964Z,14.53
2019-04-05T20:42:28.899Z,16.47
2019-04-05T20:44:58.592Z,15.67
2019-04-05T20:47:29.555Z,15.07
2019-04-05T20:49:59.674Z,13.23
2019-04-05T20:52:35.819Z,13.70
2019-04-05T20:55:08.100Z,13.40
2019-04-05T20:57:38.217Z,14.33
2019-04-05T21:00:10.295Z,13.80
2019-04-05T21:02:43.901Z,15.23
2019-04-05T21:05:20.665Z,16.03
2019-04-05T21:07:45.439Z,16.07
2019-04-05T21:10:15.611Z,15.13
2019-04-05T21:12:45.439Z,14.40
2019-04-05T21:15:15.147Z,15.73
2019-04-05T21:17:45.816Z,15.97
2019-04-05T21:20:17.127Z,14.27
2019-04-05T21:22:48.338Z,15.90
2019-04-05T21:25:19.019Z,14.23
2019-04-05T21:27:49.987Z,15.30
2019-04-05T21:30:21.781Z,15.67
2019-04-05T21:32:57.594Z,15.07
2019-04-05T21:35:27.691Z,14.90
2019-04-05T21:37:57.777Z,15.40
2019-04-05T21:40:29.542Z,14.23
2019-04-05T21:43:00.159Z,15.20
2019-04-05T21:45:30.119Z,15.30
2019-04-05T21:48:00.379Z,12.67
2019-04-05T21:50:30.725Z,15.70
2019-04-05T21:53:01.847Z,16.10
2019-04-05T21:55:31.943Z,14.13
2019-04-05T21:58:02.753Z,15.73
2019-04-05T22:00:46.084Z,13.53
2019-04-05T22:03:16.036Z,13.03
2019-04-05T22:05:46.136Z,12.98
2019-04-05T22:08:17.173Z,14.07
2019-04-05T22:10:47.310Z,12.27
2019-04-05T22:13:17.459Z,12.25
2019-04-05T22:15:47.314Z,13.43
2019-04-05T22:18:18.019Z,12.60
2019-04-05T22:20:47.729Z,13.10
2019-04-05T22:23:17.743Z,14.80
2019-04-05T22:25:47.875Z,14.50
2019-04-05T22:28:17.602Z,12.93
2019-04-05T22:30:47.311Z,12.53
2019-04-05T22:33:17.065Z,14.70
2019-04-05T22:35:46.801Z,13.03
2019-04-05T22:38:16.761Z,13.93
2019-04-05T22:40:46.919Z,13.75
2019-04-05T22:43:17.017Z,14.43
2019-04-05T22:45:46.895Z,14.43
2019-04-05T22:48:19.908Z,14.97
2019-04-05T22:50:50.004Z,14.70
2019-04-05T22:53:19.868Z,13.50
2019-04-05T22:55:57.828Z,14.77
2019-04-05T22:58:27.675Z,14.38
2019-04-05T23:00:57.375Z,15.80
2019-04-05T23:03:30.109Z,14.50
2019-04-05T23:05:59.820Z,13.67
2019-04-05T23:08:29.785Z,14.27
2019-04-05T23:10:59.913Z,13.67
2019-04-05T23:13:32.020Z,14.13
2019-04-05T23:16:02.196Z,15.73
2019-04-05T23:18:32.039Z,12.70
2019-04-05T23:21:01.994Z,16.30
2019-04-05T23:23:33.040Z,15.93
2019-04-05T23:26:05.179Z,15.90
2019-04-05T23:28:37.011Z,14.73
2019-04-05T23:31:06.735Z,14.63
2019-04-05T23:33:36.439Z,13.43
2019-04-05T23:36:10.239Z,14.07
2019-04-05T23:38:42.135Z,15.90
2019-04-05T23:41:12.554Z,14.67
2019-04-05T23:43:44.387Z,13.97
2019-04-05T23:46:14.339Z,14.43
2019-04-05T23:49:03.504Z,14.33
2019-04-05T23:51:34.203Z,15.50
2019-04-05T23:54:04.062Z,13.78
2019-04-05T23:56:35.767Z,12.60
2019-04-05T23:59:05.759Z,12.15
